Time;durP1;ratioP1;P1;durP2;ratioP2;P2;SDS_P1;SDS_P2;PMS_P1;PMS_P2;Temp;Humidity;BMP_temperature;BMP_pressure;BME280_temperature;BME280_humidity;BME280_pressure;Samples;Min_cycle;Max_cycle;Signal;HPM_P1;HPM_P2
2020/12/11 00:00:29;;;;;;;19.62;10.15;;;;;;;4.18;60.04;101281.82;1752553;80;21121;-79
2020/12/11 00:02:58;;;;;;;25.20;11.35;;;;;;;4.19;60.01;101280.90;1756707;80;21134;-80
2020/12/11 00:05:26;;;;;;;17.75;9.68;;;;;;;4.21;59.97;101291.77;1747365;80;21067;-81
2020/12/11 00:07:53;;;;;;;21.23;10.65;;;;;;;4.20;59.89;101284.77;1746232;81;21561;-79
2020/12/11 00:10:23;;;;;;;17.87;10.80;;;;;;;4.18;59.88;101279.17;1746731;80;21182;-79
2020/12/11 00:12:51;;;;;;;18.52;9.85;;;;;;;4.16;59.92;101286.38;1749319;80;21177;-81
2020/12/11 00:15:19;;;;;;;23.22;10.88;;;;;;;4.18;59.83;101284.03;1745442;81;21218;-79
2020/12/11 00:17:49;;;;;;;23.27;10.40;;;;;;;4.13;59.84;101278.61;1745037;81;21181;-78
2020/12/11 00:20:17;;;;;;;19.92;10.68;;;;;;;4.12;59.84;101287.05;1745074;81;22715;-77
2020/12/11 00:22:44;;;;;;;17.25;8.65;;;;;;;4.13;59.81;101289.22;1746013;82;21166;-79
2020/12/11 00:25:13;;;;;;;19.57;9.65;;;;;;;4.15;59.75;101282.04;1747381;81;21561;-78
2020/12/11 00:27:40;;;;;;;17.67;9.95;;;;;;;4.14;59.70;101275.04;1747354;81;21154;-78
2020/12/11 00:30:08;;;;;;;25.17;9.28;;;;;;;4.17;59.67;101269.52;1747340;81;21616;-78
2020/12/11 00:32:36;;;;;;;19.50;10.00;;;;;;;4.21;59.60;101272.36;1747380;82;22070;-79
2020/12/11 00:35:08;;;;;;;19.73;9.35;;;;;;;4.24;59.48;101268.20;1747241;81;21669;-78
2020/12/11 00:37:36;;;;;;;17.67;8.88;;;;;;;4.25;59.39;101273.39;1747375;82;21067;-79
2020/12/11 00:40:04;;;;;;;18.17;8.75;;;;;;;4.25;59.34;101261.94;1747316;82;21062;-79
2020/12/11 00:42:32;;;;;;;16.40;9.05;;;;;;;4.28;59.27;101265.73;1747351;81;21518;-78
2020/12/11 00:44:59;;;;;;;15.88;9.78;;;;;;;4.31;59.20;101260.20;1747246;82;21217;-78
2020/12/11 00:47:27;;;;;;;18.70;9.20;;;;;;;4.32;59.16;101260.61;1747258;82;21091;-79
2020/12/11 00:49:56;;;;;;;12.95;7.10;;;;;;;4.34;59.09;101269.30;1747238;82;21072;-79
2020/12/11 00:52:24;;;;;;;18.50;10.18;;;;;;;4.35;59.00;101258.22;1747368;82;21498;-78
2020/12/11 00:54:52;;;;;;;18.45;9.33;;;;;;;4.32;59.00;101269.89;1747226;82;21142;-79
2020/12/11 00:57:20;;;;;;;18.30;9.63;;;;;;;4.17;59.43;101274.83;1747292;81;21801;-79
2020/12/11 00:59:48;;;;;;;16.15;9.45;;;;;;;4.18;59.48;101269.89;1747190;81;21342;-78
2020/12/11 01:02:15;;;;;;;20.20;10.65;;;;;;;4.21;59.42;101272.36;1747267;81;21063;-78
2020/12/11 01:04:43;;;;;;;18.37;9.15;;;;;;;4.21;59.33;101267.91;1747293;82;21094;-79
2020/12/11 01:07:11;;;;;;;14.75;8.30;;;;;;;4.22;59.19;101269.59;1747285;81;21145;-79
2020/12/11 01:09:41;;;;;;;15.58;8.10;;;;;;;4.18;59.11;101268.12;1747247;81;21131;-78
2020/12/11 01:12:08;;;;;;;19.98;9.58;;;;;;;4.12;59.15;101264.98;1747231;82;21158;-79
2020/12/11 01:14:36;;;;;;;17.75;8.33;;;;;;;4.11;59.15;101267.27;1747201;81;21050;-78
2020/12/11 01:17:04;;;;;;;15.85;8.40;;;;;;;4.06;59.25;101264.43;1747299;82;21055;-78
2020/12/11 01:19:32;;;;;;;15.45;7.87;;;;;;;4.03;59.22;101261.96;1747269;81;21121;-79
2020/12/11 01:22:04;;;;;;;16.82;9.08;;;;;;;3.99;59.20;101271.05;1747226;82;21398;-78
2020/12/11 01:24:29;;;;;;;17.35;8.75;;;;;;;3.95;59.25;101263.39;1747042;81;21197;-79
2020/12/11 01:26:57;;;;;;;19.67;9.93;;;;;;;3.97;59.26;101258.86;1747300;81;21095;-79
2020/12/11 01:29:25;;;;;;;16.10;9.38;;;;;;;4.01;59.14;101263.87;1747308;81;21525;-79
2020/12/11 01:31:56;;;;;;;13.65;8.50;;;;;;;4.04;59.10;101257.06;1756824;80;21091;-80
2020/12/11 01:34:25;;;;;;;18.73;9.10;;;;;;;4.47;58.20;101256.95;1749174;80;21218;-78
2020/12/11 01:36:53;;;;;;;17.90;7.42;;;;;;;4.33;58.30;101251.70;1745886;82;21181;-78
2020/12/11 01:39:21;;;;;;;19.62;8.68;;;;;;;4.27;58.30;101257.37;1745837;82;21638;-79
2020/12/11 01:41:50;;;;;;;18.98;8.65;;;;;;;4.74;57.12;101243.69;1745896;82;21225;-78
2020/12/11 01:44:18;;;;;;;17.65;8.68;;;;;;;4.92;56.48;101240.77;1749885;80;21397;-78
2020/12/11 01:46:46;;;;;;;19.57;9.30;;;;;;;4.94;56.01;101243.68;1747935;80;21621;-78
2020/12/11 01:49:14;;;;;;;20.20;8.93;;;;;;;4.88;55.91;101237.46;1718988;80;21094;-78
2020/12/11 01:51:43;;;;;;;13.10;6.90;;;;;;;4.84;55.75;101236.81;1756850;80;21094;-78
2020/12/11 01:54:11;;;;;;;17.37;8.45;;;;;;;4.65;55.98;101247.43;1758254;80;21122;-80
2020/12/11 01:56:54;;;;;;;18.87;9.83;;;;;;;4.77;55.76;101239.99;1755203;80;21149;-80
2020/12/11 01:59:27;;;;;;;11.90;5.62;;;;;;;4.76;55.58;101241.77;1748097;80;22676;-78
2020/12/11 02:01:55;;;;;;;16.90;8.78;;;;;;;4.74;55.62;101237.05;1760095;80;21169;-78
2020/12/11 02:04:23;;;;;;;19.73;9.83;;;;;;;4.67;55.56;101231.77;1740429;80;21065;-78
2020/12/11 02:06:51;;;;;;;17.07;9.00;;;;;;;4.72;55.54;101234.11;1749215;80;21106;-79
2020/12/11 02:09:22;;;;;;;16.05;9.70;;;;;;;4.73;55.45;101234.03;1750989;80;21133;-79
2020/12/11 02:11:53;;;;;;;15.18;7.67;;;;;;;4.73;55.49;101230.53;1759547;80;21795;-79
2020/12/11 02:14:22;;;;;;;15.85;9.15;;;;;;;4.76;55.38;101219.69;1755836;80;21214;-79
2020/12/11 02:16:51;;;;;;;18.30;8.65;;;;;;;4.80;55.20;101221.19;1760270;80;21119;-81
2020/12/11 02:19:20;;;;;;;18.27;9.78;;;;;;;4.83;55.00;101217.86;1758293;80;21536;-79
2020/12/11 02:21:48;;;;;;;15.75;8.55;;;;;;;4.86;54.91;101221.25;1752943;80;21601;-80
2020/12/11 02:24:18;;;;;;;13.85;7.78;;;;;;;4.91;54.65;101215.19;1758062;80;21161;-82
2020/12/11 02:26:46;;;;;;;15.78;8.03;;;;;;;4.93;54.52;101220.74;1761838;80;21122;-80
2020/12/11 02:29:14;;;;;;;16.27;9.23;;;;;;;4.89;54.37;101215.27;1763037;80;21161;-77
2020/12/11 02:31:42;;;;;;;19.12;9.28;;;;;;;4.89;54.34;101220.58;1763069;80;21143;-80
2020/12/11 02:34:10;;;;;;;13.55;7.53;;;;;;;4.91;54.19;101218.69;1753928;80;21206;-80
2020/12/11 02:36:37;;;;;;;17.55;9.10;;;;;;;4.90;54.00;101217.44;1756844;80;21818;-81
2020/12/11 02:39:06;;;;;;;15.00;7.50;;;;;;;4.76;54.12;101215.70;1745672;81;21178;-79
2020/12/11 02:41:33;;;;;;;14.55;7.53;;;;;;;4.79;53.88;101209.73;1750932;80;21522;-79
2020/12/11 02:44:02;;;;;;;23.85;8.35;;;;;;;4.77;53.73;101210.80;1758436;80;21146;-79
2020/12/11 02:46:29;;;;;;;19.30;8.95;;;;;;;4.43;54.34;101213.01;1757520;80;21177;-82
2020/12/11 02:48:57;;;;;;;15.45;8.38;;;;;;;4.61;53.85;101213.61;1761163;80;21152;-80
2020/12/11 02:51:25;;;;;;;16.17;7.78;;;;;;;4.56;53.92;101223.20;1753750;80;21162;-80
2020/12/11 02:53:53;;;;;;;14.63;7.58;;;;;;;4.51;53.85;101217.34;1747189;81;21107;-80
2020/12/11 02:56:22;;;;;;;17.65;8.83;;;;;;;4.50;53.92;101226.27;1758582;80;21125;-80
2020/12/11 02:58:50;;;;;;;13.98;8.33;;;;;;;4.48;53.79;101221.99;1755154;80;21179;-82
2020/12/11 03:01:19;;;;;;;22.67;8.50;;;;;;;4.44;53.85;101223.14;1752069;80;21376;-80
2020/12/11 03:03:47;;;;;;;13.88;7.80;;;;;;;4.46;53.81;101217.28;1757536;80;21096;-80
2020/12/11 03:06:14;;;;;;;16.87;9.53;;;;;;;4.47;53.76;101213.19;1755348;80;21146;-80
2020/12/11 03:08:42;;;;;;;14.40;6.65;;;;;;;4.52;53.55;101218.19;1746797;82;21177;-82
2020/12/11 03:11:10;;;;;;;13.85;7.45;;;;;;;4.39;53.79;101214.64;1745655;81;21173;-80
2020/12/11 03:13:38;;;;;;;13.58;7.35;;;;;;;4.38;53.84;101205.83;1746017;81;21802;-81
2020/12/11 03:16:08;;;;;;;15.20;7.72;;;;;;;4.41;53.71;101217.58;1747211;81;21130;-80
2020/12/11 03:18:35;;;;;;;13.18;7.42;;;;;;;4.42;53.61;101216.63;1746925;82;21166;-81
2020/12/11 03:21:03;;;;;;;12.95;6.95;;;;;;;4.42;53.55;101211.31;1745584;81;21165;-80
2020/12/11 03:23:31;;;;;;;12.03;6.95;;;;;;;4.41;53.52;101200.81;1746811;82;21134;-81
2020/12/11 03:25:59;;;;;;;13.53;6.95;;;;;;;4.23;53.72;101198.41;1747277;82;21809;-80
2020/12/11 03:28:27;;;;;;;13.28;7.17;;;;;;;4.27;53.60;101196.37;1746544;82;21677;-80
2020/12/11 03:30:54;;;;;;;16.97;7.28;;;;;;;4.20;53.68;101200.39;1746854;82;21482;-80
2020/12/11 03:33:22;;;;;;;14.23;8.20;;;;;;;3.91;54.24;101199.14;1746148;81;21139;-80
2020/12/11 03:35:52;;;;;;;15.45;7.80;;;;;;;3.84;54.50;101212.39;1747404;81;21585;-81
2020/12/11 03:38:20;;;;;;;15.30;8.23;;;;;;;3.86;54.56;101214.48;1747375;82;22418;-83
2020/12/11 03:40:48;;;;;;;13.30;6.58;;;;;;;3.79;54.72;101200.75;1747248;82;21196;-82
2020/12/11 03:43:17;;;;;;;14.80;8.83;;;;;;;3.80;54.77;101216.17;1757848;81;21099;-83
2020/12/11 03:45:45;;;;;;;16.35;7.72;;;;;;;3.76;54.69;101201.41;1747220;82;21059;-82
2020/12/11 03:48:13;;;;;;;14.65;7.60;;;;;;;3.73;54.75;101204.28;1747420;81;21580;-81
2020/12/11 03:50:41;;;;;;;13.53;8.03;;;;;;;3.69;54.85;101196.98;1747357;81;21784;-80
2020/12/11 03:53:08;;;;;;;16.32;8.08;;;;;;;3.72;54.87;101191.95;1747240;81;21230;-80
2020/12/11 03:55:36;;;;;;;15.60;7.53;;;;;;;4.05;54.06;101185.86;1757579;81;21079;-80
2020/12/11 03:58:04;;;;;;;14.23;6.45;;;;;;;4.06;53.94;101182.73;1747278;82;21051;-82
2020/12/11 04:00:32;;;;;;;18.30;8.30;;;;;;;4.11;53.89;101199.66;1747107;82;21173;-81
2020/12/11 04:02:59;;;;;;;15.05;6.97;;;;;;;4.14;53.79;101191.52;1747349;81;21781;-80
2020/12/11 04:05:27;;;;;;;16.10;7.65;;;;;;;4.16;53.70;101201.55;1747310;82;21102;-79
2020/12/11 04:07:55;;;;;;;17.87;8.28;;;;;;;4.11;53.77;101197.86;1747311;81;21043;-79
2020/12/11 04:10:24;;;;;;;12.37;5.80;;;;;;;4.12;53.81;101205.34;1747017;82;21146;-79
2020/12/11 04:12:51;;;;;;;16.87;8.30;;;;;;;4.13;53.78;101212.33;1746016;82;21161;-79
2020/12/11 04:15:19;;;;;;;16.07;8.43;;;;;;;4.13;53.74;101214.98;1747899;80;22713;-78
2020/12/11 04:17:47;;;;;;;20.90;8.40;;;;;;;4.14;53.72;101218.03;1776130;80;21212;-81
2020/12/11 04:20:14;;;;;;;21.15;8.98;;;;;;;4.16;53.66;101221.42;1776058;80;21173;-79
2020/12/11 04:22:42;;;;;;;24.37;10.90;;;;;;;4.19;53.57;101218.11;1775992;80;21525;-79
2020/12/11 04:25:10;;;;;;;22.30;10.43;;;;;;;4.19;53.55;101215.45;1769993;81;21616;-79
2020/12/11 04:27:37;;;;;;;24.43;11.38;;;;;;;4.17;53.49;101229.27;1802027;79;21928;-79
2020/12/11 04:30:05;;;;;;;21.07;10.00;;;;;;;4.11;53.60;101222.20;1769842;81;21168;-79
2020/12/11 04:32:33;;;;;;;26.10;12.15;;;;;;;4.13;53.64;101218.48;1798285;79;21185;-79
2020/12/11 04:35:00;;;;;;;22.52;12.30;;;;;;;4.19;53.56;101219.44;1800119;79;21173;-79
2020/12/11 04:37:28;;;;;;;22.77;10.68;;;;;;;4.22;53.39;101222.34;1784763;79;21209;-79
2020/12/11 04:39:56;;;;;;;22.05;11.55;;;;;;;3.97;53.83;101231.88;1769011;81;21794;-79
2020/12/11 04:42:24;;;;;;;18.85;9.43;;;;;;;3.85;54.14;101226.02;1769671;81;21178;-80
2020/12/11 04:44:52;;;;;;;15.93;8.50;;;;;;;3.82;54.23;101239.47;1746180;81;21198;-78
2020/12/11 04:47:21;;;;;;;17.27;8.93;;;;;;;3.76;54.17;101233.21;1769904;81;21099;-83
2020/12/11 04:49:49;;;;;;;16.62;7.45;;;;;;;3.68;54.28;101244.31;1769125;81;21206;-80
2020/12/11 04:52:18;;;;;;;17.92;8.10;;;;;;;3.60;54.41;101224.53;1768643;81;22135;-81
2020/12/11 04:54:49;;;;;;;16.10;7.95;;;;;;;3.57;54.54;101225.55;1756475;81;21198;-79
2020/12/11 04:57:22;;;;;;;21.95;9.00;;;;;;;3.52;54.55;101229.81;1759758;81;21162;-82
2020/12/11 04:59:53;;;;;;;19.30;9.60;;;;;;;3.64;54.35;101227.38;1737225;82;21226;-79
2020/12/11 05:02:21;;;;;;;21.75;10.35;;;;;;;3.62;54.28;101234.06;1743461;82;21197;-78
2020/12/11 05:04:52;;;;;;;24.15;10.50;;;;;;;3.78;54.02;101226.03;1745328;82;22211;-80
2020/12/11 05:07:21;;;;;;;20.25;10.88;;;;;;;3.87;53.87;101224.13;1747351;80;21688;-79
2020/12/11 05:09:57;;;;;;;21.93;11.03;;;;;;;3.73;54.19;101232.09;1761581;80;21185;-79
2020/12/11 05:12:24;;;;;;;19.32;9.93;;;;;;;3.58;54.49;101233.02;1779724;79;21153;-79
2020/12/11 05:14:57;;;;;;;19.50;10.13;;;;;;;3.52;54.50;101230.28;1768692;81;21523;-80
2020/12/11 05:17:30;;;;;;;17.82;9.38;;;;;;;3.54;54.33;101237.20;1778865;79;21382;-78
2020/12/11 05:19:59;;;;;;;13.38;7.97;;;;;;;3.76;53.80;101234.06;1776988;79;21141;-79
2020/12/11 05:22:35;;;;;;;17.95;9.75;;;;;;;3.70;53.90;101237.58;1769439;81;21139;-78
2020/12/11 05:25:05;;;;;;;19.05;10.50;;;;;;;3.67;53.80;101236.43;1768515;81;21119;-78
2020/12/11 05:27:40;;;;;;;14.80;8.15;;;;;;;3.45;54.24;101239.54;1774667;79;21125;-79
2020/12/11 05:30:16;;;;;;;19.42;9.10;;;;;;;3.49;54.12;101242.38;1750837;82;21574;-78
2020/12/11 05:32:54;;;;;;;17.20;9.28;;;;;;;3.30;54.38;101246.14;1785977;80;21105;-79
2020/12/11 05:35:28;;;;;;;19.30;8.55;;;;;;;3.20;54.56;101242.83;1761470;81;21447;-79
2020/12/11 05:38:06;;;;;;;19.77;9.63;;;;;;;3.19;54.56;101243.78;1785339;79;21189;-79
2020/12/11 05:40:39;;;;;;;17.85;9.28;;;;;;;3.22;54.32;101244.90;1752720;81;21201;-78
2020/12/11 05:43:21;;;;;;;20.30;8.43;;;;;;;3.47;53.74;101250.43;1770017;81;21333;-78
2020/12/11 05:45:57;;;;;;;16.00;8.78;;;;;;;3.49;53.54;101249.85;1770519;79;21169;-77
2020/12/11 05:48:37;;;;;;;15.88;8.33;;;;;;;3.29;53.98;101252.87;1779832;79;21554;-78
2020/12/11 05:51:16;;;;;;;18.73;9.43;;;;;;;3.15;54.36;101251.52;1785025;80;21113;-79
2020/12/11 05:53:44;;;;;;;19.85;9.65;;;;;;;3.14;54.30;101253.80;1785192;80;21101;-79
2020/12/11 05:56:11;;;;;;;18.62;9.73;;;;;;;3.43;53.45;101258.18;1780325;79;21369;-77
2020/12/11 05:58:39;;;;;;;21.42;10.13;;;;;;;3.49;53.24;101252.50;1765526;80;21177;-78
2020/12/11 06:01:07;;;;;;;19.12;10.60;;;;;;;3.54;53.12;101255.75;1772364;80;21125;-77
2020/12/11 06:03:35;;;;;;;14.70;8.50;;;;;;;3.55;52.99;101240.23;1772199;80;21112;-78
2020/12/11 06:06:03;;;;;;;22.77;12.03;;;;;;;3.58;52.85;101247.12;1773349;80;21113;-78
2020/12/11 06:08:31;;;;;;;19.25;10.20;;;;;;;3.47;52.71;101246.94;1758258;79;21162;-79
2020/12/11 06:11:00;;;;;;;16.37;8.93;;;;;;;3.39;53.10;101247.87;1741257;80;21133;-77
2020/12/11 06:13:39;;;;;;;25.50;11.80;;;;;;;3.43;53.16;101250.71;1773456;79;21145;-78
2020/12/11 06:16:07;;;;;;;25.32;10.95;;;;;;;3.44;52.96;101249.28;1766048;79;21969;-79
2020/12/11 06:18:35;;;;;;;20.15;10.32;;;;;;;3.44;53.02;101247.96;1770796;79;21117;-79
2020/12/11 06:21:06;;;;;;;23.75;10.95;;;;;;;3.45;53.00;101247.04;1773788;80;21417;-77
2020/12/11 06:23:37;;;;;;;23.92;10.80;;;;;;;3.43;53.00;101234.34;1765667;79;21133;-79
2020/12/11 06:26:09;;;;;;;23.18;11.05;;;;;;;3.41;52.92;101242.02;1727421;79;21167;-79
2020/12/11 06:28:51;;;;;;;21.02;9.93;;;;;;;3.34;53.07;101234.05;1775362;79;21114;-80
2020/12/11 06:31:23;;;;;;;23.05;11.60;;;;;;;3.32;53.19;101234.16;1780394;79;21194;-80
2020/12/11 06:33:53;;;;;;;21.10;10.23;;;;;;;3.35;53.29;101236.59;1736430;80;21787;-77
2020/12/11 06:36:21;;;;;;;23.87;11.90;;;;;;;3.40;53.37;101233.20;1764001;80;21434;-79
2020/12/11 06:38:52;;;;;;;30.43;14.23;;;;;;;3.42;53.34;101235.77;1755787;80;21122;-78
2020/12/11 06:41:35;;;;;;;21.55;11.20;;;;;;;3.43;53.24;101229.05;1761005;80;21114;-80
2020/12/11 06:44:13;;;;;;;24.32;13.75;;;;;;;3.42;53.06;101233.98;1764770;80;21113;-79
2020/12/11 06:46:41;;;;;;;22.50;11.33;;;;;;;2.95;53.82;101231.06;1764985;80;21387;-79
2020/12/11 06:49:19;;;;;;;20.52;11.40;;;;;;;2.82;54.13;101226.55;1758111;80;21129;-79
2020/12/11 06:51:52;;;;;;;22.32;12.15;;;;;;;2.74;54.28;101225.70;1753100;80;21075;-79
2020/12/11 06:54:26;;;;;;;17.02;8.90;;;;;;;2.65;54.42;101230.20;1773877;80;21090;-78
2020/12/11 06:56:59;;;;;;;29.02;16.32;;;;;;;2.57;54.70;101222.69;1775868;77;21074;-79
2020/12/11 06:59:33;;;;;;;18.17;9.50;;;;;;;2.54;54.77;101225.50;1770951;80;21447;-79
2020/12/11 07:02:15;;;;;;;14.87;8.28;;;;;;;2.67;54.56;101219.05;1760366;80;21711;-78
2020/12/11 07:04:50;;;;;;;17.95;9.50;;;;;;;2.51;55.01;101217.30;1749467;82;21229;-78
2020/12/11 07:07:32;;;;;;;17.50;8.73;;;;;;;2.47;55.09;101219.73;1762759;80;21217;-78
2020/12/11 07:09:59;;;;;;;18.82;10.60;;;;;;;2.47;55.06;101228.98;1763469;80;21730;-80
2020/12/11 07:12:31;;;;;;;27.00;12.43;;;;;;;2.42;54.92;101207.24;1752991;80;21442;-78
2020/12/11 07:14:59;;;;;;;23.70;10.93;;;;;;;2.38;54.98;101201.74;1737604;81;21267;-79
2020/12/11 07:17:28;;;;;;;23.47;11.38;;;;;;;2.37;55.03;101210.63;1760455;80;21193;-80
2020/12/11 07:19:57;;;;;;;17.73;10.30;;;;;;;2.41;54.96;101209.52;1752230;80;21609;-79
2020/12/11 07:22:25;;;;;;;18.17;9.18;;;;;;;2.45;54.74;101203.11;1759818;80;21204;-79
2020/12/11 07:24:53;;;;;;;26.33;13.22;;;;;;;2.47;54.68;101209.15;1759142;80;21802;-78
2020/12/11 07:27:21;;;;;;;19.02;9.70;;;;;;;2.45;54.58;101199.59;1757207;80;21134;-77
2020/12/11 07:29:52;;;;;;;22.48;12.10;;;;;;;2.43;54.70;101210.73;1761769;80;21139;-79
2020/12/11 07:32:20;;;;;;;18.15;9.33;;;;;;;2.47;54.58;101199.89;1770158;79;21149;-77
2020/12/11 07:34:48;;;;;;;24.25;12.80;;;;;;;2.48;54.48;101202.06;1764658;79;21549;-78
2020/12/11 07:37:16;;;;;;;20.72;11.55;;;;;;;2.40;54.63;101197.20;1784288;79;21369;-79
2020/12/11 07:39:44;;;;;;;32.23;13.60;;;;;;;2.37;54.81;101197.41;1780495;79;21087;-77
2020/12/11 07:42:12;;;;;;;26.73;12.68;;;;;;;2.37;54.77;101190.80;1768017;80;21486;-79
2020/12/11 07:44:40;;;;;;;32.93;15.65;;;;;;;2.35;54.78;101193.98;1763616;80;21137;-78
2020/12/11 07:47:11;;;;;;;28.70;14.10;;;;;;;2.35;54.77;101191.80;1761901;80;21123;-78
2020/12/11 07:49:45;;;;;;;31.48;15.32;;;;;;;2.36;54.82;101195.67;1763508;80;22614;-78
2020/12/11 07:52:22;;;;;;;26.07;14.25;;;;;;;2.36;54.88;101195.67;1781471;78;21137;-79
2020/12/11 07:54:50;;;;;;;31.35;13.28;;;;;;;2.42;54.94;101199.78;1765239;79;21463;-80
2020/12/11 07:57:24;;;;;;;25.43;11.55;;;;;;;2.44;54.66;101184.67;1762071;79;21142;-78
2020/12/11 08:00:11;;;;;;;24.05;13.38;;;;;;;2.42;54.71;101204.59;1765715;80;21435;-79
2020/12/11 08:03:06;;;;;;;29.05;12.23;;;;;;;2.40;54.73;101183.98;1753402;80;21903;-79
2020/12/11 08:05:39;;;;;;;24.07;13.65;;;;;;;2.39;54.59;101183.61;1763426;80;21138;-78
2020/12/11 08:11:42;;;;;;;20.60;10.43;;;;;;;2.39;54.73;101178.33;1795481;77;23352;-78
2020/12/11 08:14:12;;;;;;;20.60;11.08;;;;;;;2.37;54.82;101181.54;1775407;78;22315;-78
2020/12/11 08:16:42;;;;;;;21.27;11.65;;;;;;;2.35;54.69;101182.08;1781766;78;21427;-80
2020/12/11 08:19:17;;;;;;;24.75;12.82;;;;;;;2.34;54.58;101186.99;1778789;78;21219;-78
2020/12/11 08:24:57;;;;;;;21.82;11.83;;;;;;;2.16;54.83;101177.47;1753776;78;21248;-83
2020/12/11 08:27:28;;;;;;;23.35;12.63;;;;;;;2.11;55.03;101176.88;1793492;78;21050;-79
2020/12/11 08:30:24;;;;;;;22.07;11.33;;;;;;;2.12;55.17;101191.79;1781576;77;21426;-86
2020/12/11 08:32:39;;;;;;;18.40;10.90;;;;;;;2.14;55.07;101168.78;1769162;77;21835;-79
2020/12/11 08:35:19;;;;;;;20.17;10.75;;;;;;;2.14;55.05;101177.56;1764537;78;21208;-79
2020/12/11 08:37:58;;;;;;;25.23;13.10;;;;;;;2.14;54.99;101184.64;1783033;78;21193;-79
2020/12/11 08:40:29;;;;;;;16.32;10.45;;;;;;;2.07;55.05;101192.52;1786636;78;21179;-79
2020/12/11 08:51:25;;;;;;;20.95;12.30;;;;;;;1.85;55.42;101167.28;1788304;77;21105;-80
2020/12/11 08:54:00;;;;;;;19.25;10.23;;;;;;;1.88;55.68;101163.63;1793756;77;21116;-79
2020/12/11 08:56:31;;;;;;;20.52;10.93;;;;;;;1.94;55.67;101163.28;1777607;77;22260;-79
2020/12/11 09:01:51;;;;;;;18.35;9.58;;;;;;;2.13;55.49;101153.84;1792302;78;22956;-77
2020/12/11 09:04:25;;;;;;;19.23;10.03;;;;;;;2.14;55.37;101161.70;1769469;79;21175;-79
2020/12/11 09:06:53;;;;;;;19.57;9.75;;;;;;;2.13;55.22;101155.17;1759156;80;21185;-78
2020/12/11 09:09:21;;;;;;;18.80;9.30;;;;;;;2.08;55.33;101150.14;1781136;78;21647;-78
2020/12/11 09:11:49;;;;;;;20.10;10.43;;;;;;;2.07;55.31;101144.48;1760650;80;21596;-79
2020/12/11 09:14:21;;;;;;;15.08;8.08;;;;;;;2.06;55.33;101144.58;1759178;80;21386;-79
2020/12/11 09:17:07;;;;;;;14.38;9.18;;;;;;;2.10;55.35;101146.11;1863508;74;23812;-78
2020/12/11 09:19:37;;;;;;;22.65;10.68;;;;;;;2.08;55.34;101153.26;1868184;75;21555;-77
2020/12/11 09:22:08;;;;;;;23.57;12.55;;;;;;;2.08;55.27;101145.33;1864924;75;21397;-78
2020/12/11 09:24:47;;;;;;;17.48;9.73;;;;;;;2.01;55.45;101137.76;1864071;75;21241;-78
2020/12/11 09:27:18;;;;;;;16.10;9.83;;;;;;;2.05;55.51;101135.80;1864188;75;21201;-78
2020/12/11 09:30:23;;;;;;;14.83;9.00;;;;;;;2.05;55.61;101130.99;1847436;75;21971;-79
2020/12/11 09:33:18;;;;;;;16.80;9.80;;;;;;;2.07;55.63;101133.06;1748534;80;21156;-78
2020/12/11 09:36:02;;;;;;;;;;;;;;;;;;;;;
2020/12/11 09:38:30;;;;;;;22.42;11.80;;;;;;;2.21;55.60;101109.34;1863343;75;22216;-79
2020/12/11 09:41:04;;;;;;;23.07;11.83;;;;;;;2.19;55.55;101116.04;1807308;77;21629;-78
2020/12/11 09:44:07;;;;;;;20.32;12.33;;;;;;;2.17;55.54;101126.30;1784696;79;21257;-78
2020/12/11 09:49:09;;;;;;;18.52;10.53;;;;;;;2.10;55.76;101098.08;1794066;78;21205;-80
2020/12/11 09:54:26;;;;;;;19.80;12.07;;;;;;;2.19;55.61;101096.70;1770000;79;21189;-79
2020/12/11 09:56:54;;;;;;;19.17;10.08;;;;;;;2.22;55.62;101097.34;1756443;80;21523;-78
2020/12/11 09:59:38;;;;;;;16.70;9.90;;;;;;;2.25;55.41;101095.85;1757212;80;21216;-78
2020/12/11 10:04:40;;;;;;;18.73;10.50;;;;;;;2.29;55.29;101084.64;1789496;78;21099;-77
2020/12/11 10:07:12;;;;;;;18.60;8.70;;;;;;;2.29;55.14;101089.92;1794478;78;21097;-78
2020/12/11 10:09:43;;;;;;;18.32;10.13;;;;;;;2.24;55.08;101097.27;1736278;80;22107;-77
2020/12/11 10:12:12;;;;;;;15.05;9.15;;;;;;;2.08;55.28;101072.66;1721976;80;21148;-76
2020/12/11 10:14:44;;;;;;;16.02;9.20;;;;;;;2.05;55.51;101074.19;1778674;79;21177;-77
2020/12/11 10:17:11;;;;;;;16.50;8.88;;;;;;;2.07;55.54;101082.86;1779875;79;21128;-76
2020/12/11 10:19:39;;;;;;;14.98;7.55;;;;;;;2.05;55.57;101084.75;1772894;79;21566;-76
2020/12/11 10:22:07;;;;;;;16.27;9.88;;;;;;;1.96;55.68;101089.62;1776003;79;22000;-77
2020/12/11 10:24:41;;;;;;;21.05;10.65;;;;;;;1.87;55.81;101080.05;1777608;79;21120;-78
2020/12/11 10:27:09;;;;;;;18.02;10.32;;;;;;;2.10;55.26;101082.69;1775736;79;21149;-78
2020/12/11 10:29:37;;;;;;;17.45;9.78;;;;;;;2.10;55.32;101087.50;1777751;79;21089;-78
2020/12/11 10:32:05;;;;;;;14.30;8.63;;;;;;;2.07;55.39;101085.50;1782183;79;21120;-78
2020/12/11 10:34:35;;;;;;;15.38;9.33;;;;;;;1.90;55.86;101100.52;1779410;79;21569;-78
2020/12/11 10:37:12;;;;;;;17.35;9.90;;;;;;;1.88;55.98;101077.78;1777119;79;21121;-77
2020/12/11 10:39:49;;;;;;;18.50;10.93;;;;;;;1.96;56.12;101083.02;1779350;79;21218;-78
2020/12/11 10:42:39;;;;;;;21.65;11.85;;;;;;;2.07;55.82;101092.11;1726381;78;21105;-78
2020/12/11 10:45:31;;;;;;;17.17;10.30;;;;;;;1.98;55.98;101077.63;1768450;78;21661;-79
2020/12/11 10:48:01;;;;;;;14.07;8.35;;;;;;;1.92;56.12;101074.03;1789375;78;21208;-77
2020/12/11 10:50:29;;;;;;;15.83;9.60;;;;;;;1.97;56.35;101083.86;1757423;80;21169;-77
2020/12/11 10:52:57;;;;;;;19.30;11.65;;;;;;;2.00;56.40;101063.87;1794056;78;21117;-78
2020/12/11 10:55:26;;;;;;;19.42;11.28;;;;;;;2.09;56.35;101080.96;1790010;78;21094;-78
2020/12/11 10:57:56;;;;;;;21.37;11.73;;;;;;;2.09;56.13;101063.34;1794609;78;21095;-76
2020/12/11 11:00:24;;;;;;;20.97;10.80;;;;;;;2.09;56.14;101067.75;1793306;78;21349;-78
2020/12/11 11:02:51;;;;;;;18.73;12.30;;;;;;;2.04;56.09;101060.09;1788849;78;21133;-78
2020/12/11 11:05:19;;;;;;;23.25;11.38;;;;;;;2.32;55.59;101069.93;1797485;78;21600;-77
2020/12/11 11:07:47;;;;;;;14.03;8.60;;;;;;;2.14;56.00;101065.72;1798010;78;21081;-78
2020/12/11 11:10:27;;;;;;;19.12;9.05;;;;;;;2.20;55.96;101070.64;1797250;78;21101;-78
2020/12/11 11:12:55;;;;;;;18.25;10.00;;;;;;;2.16;56.02;101063.83;1794306;78;21391;-78
2020/12/11 11:18:57;;;;;;;16.52;10.15;;;;;;;2.30;55.91;101048.00;1725364;82;21182;-78
2020/12/11 11:27:59;;;;;;;;;;;;;;;2.26;56.07;101035.43;1779908;79;21195;-77
2020/12/11 11:30:26;;;;;;;22.50;10.43;;;;;;;2.34;55.98;101041.59;1780617;79;20297;-78
2020/12/11 11:32:54;;;;;;;18.90;11.38;;;;;;;2.37;56.05;101042.74;1773837;79;21984;-80
2020/12/11 11:35:22;;;;;;;23.50;13.48;;;;;;;2.42;56.02;101039.35;1787371;79;21455;-77
2020/12/11 11:37:50;;;;;;;21.02;13.15;;;;;;;2.46;56.06;101038.23;1772854;79;21122;-78
2020/12/11 11:40:18;;;;;;;18.70;12.10;;;;;;;2.50;56.02;101030.97;1768641;79;22751;-77
2020/12/11 11:42:46;;;;;;;20.32;11.15;;;;;;;2.49;55.98;101034.05;1765578;79;21129;-78
2020/12/11 11:45:19;;;;;;;20.50;11.53;;;;;;;2.48;55.92;101029.72;1776278;79;21142;-78
2020/12/11 11:47:51;;;;;;;24.82;13.40;;;;;;;2.51;55.88;101022.09;1768628;79;21105;-78
2020/12/11 11:52:48;;;;;;;16.62;10.90;;;;;;;2.39;56.11;101034.72;1774312;79;21381;-79
2020/12/11 11:55:18;;;;;;;17.45;9.43;;;;;;;2.44;55.97;101028.20;1802891;78;21117;-78
2020/12/11 11:57:45;;;;;;;21.75;11.33;;;;;;;2.47;55.91;101021.41;1792516;79;21443;-78
2020/12/11 12:00:14;;;;;;;22.62;12.50;;;;;;;2.50;55.80;101038.91;1774544;79;21145;-77
2020/12/11 12:02:42;;;;;;;18.48;10.75;;;;;;;2.45;55.86;101021.11;1791180;79;21089;-77
2020/12/11 12:05:10;;;;;;;21.62;12.70;;;;;;;2.44;56.01;101024.23;1777827;79;21364;-78
2020/12/11 12:07:39;;;;;;;17.10;9.00;;;;;;;2.45;56.00;101028.60;1772719;79;21711;-77
2020/12/11 12:10:10;;;;;;;22.87;12.82;;;;;;;2.53;55.99;101036.05;1776262;78;21106;-77
2020/12/11 12:12:46;;;;;;;24.87;13.68;;;;;;;2.66;55.67;101028.23;1775217;78;21154;-78
2020/12/11 12:15:56;;;;;;;19.70;11.40;;;;;;;2.64;55.76;101031.45;1754848;79;21210;-78
2020/12/11 12:18:27;;;;;;;20.10;10.13;;;;;;;2.71;55.57;101035.41;1780952;79;22103;-80